sensor_id;sensor_type;location;lat;lon;timestamp;P1;durP1;ratioP1;P2;durP2;ratioP2
54849;SDS011;47660;51.334;12.396;2022-11-23T00:03:50;8.40;;;3.78;;
54849;SDS011;47660;51.334;12.396;2022-11-23T00:06:17;6.93;;;3.70;;
54849;SDS011;47660;51.334;12.396;2022-11-23T00:08:43;6.97;;;3.08;;
54849;SDS011;47660;51.334;12.396;2022-11-23T00:11:11;8.25;;;3.60;;
54849;SDS011;47660;51.334;12.396;2022-11-23T00:13:37;8.95;;;4.07;;
54849;SDS011;47660;51.334;12.396;2022-11-23T00:16:08;4.32;;;3.45;;
54849;SDS011;47660;51.334;12.396;2022-11-23T00:18:37;5.95;;;3.45;;
54849;SDS011;47660;51.334;12.396;2022-11-23T00:21:06;6.57;;;3.50;;
54849;SDS011;47660;51.334;12.396;2022-11-23T00:23:37;8.43;;;3.40;;
54849;SDS011;47660;51.334;12.396;2022-11-23T00:26:03;7.88;;;4.13;;
54849;SDS011;47660;51.334;12.396;2022-11-23T00:28:30;5.22;;;3.50;;
54849;SDS011;47660;51.334;12.396;2022-11-23T00:30:56;5.85;;;3.33;;
54849;SDS011;47660;51.334;12.396;2022-11-23T00:33:22;8.38;;;3.45;;
54849;SDS011;47660;51.334;12.396;2022-11-23T00:35:47;6.03;;;3.35;;
54849;SDS011;47660;51.334;12.396;2022-11-23T00:38:22;8.10;;;3.58;;
54849;SDS011;47660;51.334;12.396;2022-11-23T00:40:55;7.18;;;3.22;;
54849;SDS011;47660;51.334;12.396;2022-11-23T00:43:25;11.98;;;4.47;;
54849;SDS011;47660;51.334;12.396;2022-11-23T00:46:07;6.80;;;3.28;;
54849;SDS011;47660;51.334;12.396;2022-11-23T00:48:38;8.13;;;3.30;;
54849;SDS011;47660;51.334;12.396;2022-11-23T00:51:05;5.80;;;2.97;;
54849;SDS011;47660;51.334;12.396;2022-11-23T00:53:34;6.78;;;3.60;;
54849;SDS011;47660;51.334;12.396;2022-11-23T00:56:00;11.10;;;3.67;;
54849;SDS011;47660;51.334;12.396;2022-11-23T00:58:26;10.25;;;3.72;;
54849;SDS011;47660;51.334;12.396;2022-11-23T01:01:16;9.43;;;3.60;;
54849;SDS011;47660;51.334;12.396;2022-11-23T01:03:45;7.50;;;3.22;;
54849;SDS011;47660;51.334;12.396;2022-11-23T01:06:18;5.72;;;3.17;;
54849;SDS011;47660;51.334;12.396;2022-11-23T01:08:51;5.88;;;2.92;;
54849;SDS011;47660;51.334;12.396;2022-11-23T01:11:27;10.40;;;3.50;;
54849;SDS011;47660;51.334;12.396;2022-11-23T01:13:54;8.43;;;3.97;;
54849;SDS011;47660;51.334;12.396;2022-11-23T01:16:24;6.82;;;3.28;;
54849;SDS011;47660;51.334;12.396;2022-11-23T01:18:55;7.38;;;3.72;;
54849;SDS011;47660;51.334;12.396;2022-11-23T01:21:22;8.43;;;3.67;;
54849;SDS011;47660;51.334;12.396;2022-11-23T01:23:49;6.13;;;3.92;;
54849;SDS011;47660;51.334;12.396;2022-11-23T01:26:14;7.50;;;4.20;;
54849;SDS011;47660;51.334;12.396;2022-11-23T01:28:40;8.75;;;3.88;;
54849;SDS011;47660;51.334;12.396;2022-11-23T01:31:07;7.68;;;3.70;;
54849;SDS011;47660;51.334;12.396;2022-11-23T01:33:37;6.15;;;3.83;;
54849;SDS011;47660;51.334;12.396;2022-11-23T01:36:13;8.77;;;4.38;;
54849;SDS011;47660;51.334;12.396;2022-11-23T01:38:43;6.70;;;3.15;;
54849;SDS011;47660;51.334;12.396;2022-11-23T01:41:14;11.05;;;4.10;;
54849;SDS011;47660;51.334;12.396;2022-11-23T01:43:44;12.45;;;5.18;;
54849;SDS011;47660;51.334;12.396;2022-11-23T01:46:10;8.70;;;4.25;;
54849;SDS011;47660;51.334;12.396;2022-11-23T01:54:00;6.25;;;3.28;;
54849;SDS011;47660;51.334;12.396;2022-11-23T01:56:41;10.82;;;4.57;;
54849;SDS011;47660;51.334;12.396;2022-11-23T01:59:11;6.55;;;3.90;;
54849;SDS011;47660;51.334;12.396;2022-11-23T02:01:40;8.05;;;3.30;;
54849;SDS011;47660;51.334;12.396;2022-11-23T02:04:07;5.45;;;2.97;;
54849;SDS011;47660;51.334;12.396;2022-11-23T02:06:36;9.48;;;4.07;;
54849;SDS011;47660;51.334;12.396;2022-11-23T02:09:04;4.30;;;2.53;;
54849;SDS011;47660;51.334;12.396;2022-11-23T02:11:32;5.00;;;3.35;;
54849;SDS011;47660;51.334;12.396;2022-11-23T02:13:59;7.22;;;4.00;;
54849;SDS011;47660;51.334;12.396;2022-11-23T02:16:25;11.60;;;3.40;;
54849;SDS011;47660;51.334;12.396;2022-11-23T02:18:51;7.13;;;3.20;;
54849;SDS011;47660;51.334;12.396;2022-11-23T02:21:19;6.65;;;3.30;;
54849;SDS011;47660;51.334;12.396;2022-11-23T02:26:28;3.85;;;2.70;;
54849;SDS011;47660;51.334;12.396;2022-11-23T02:31:32;9.02;;;3.42;;
54849;SDS011;47660;51.334;12.396;2022-11-23T02:33:57;7.05;;;3.03;;
54849;SDS011;47660;51.334;12.396;2022-11-23T02:39:20;4.68;;;2.70;;
54849;SDS011;47660;51.334;12.396;2022-11-23T02:41:53;5.72;;;3.50;;
54849;SDS011;47660;51.334;12.396;2022-11-23T02:47:27;9.32;;;4.20;;
54849;SDS011;47660;51.334;12.396;2022-11-23T02:49:55;8.55;;;3.33;;
54849;SDS011;47660;51.334;12.396;2022-11-23T02:52:20;8.23;;;3.20;;
54849;SDS011;47660;51.334;12.396;2022-11-23T02:54:45;7.25;;;3.38;;
54849;SDS011;47660;51.334;12.396;2022-11-23T02:57:11;9.32;;;3.53;;
54849;SDS011;47660;51.334;12.396;2022-11-23T02:59:40;9.30;;;3.25;;
54849;SDS011;47660;51.334;12.396;2022-11-23T03:02:06;4.68;;;2.35;;
54849;SDS011;47660;51.334;12.396;2022-11-23T03:04:32;6.40;;;2.53;;
54849;SDS011;47660;51.334;12.396;2022-11-23T03:06:57;6.22;;;2.70;;
54849;SDS011;47660;51.334;12.396;2022-11-23T03:09:23;8.73;;;4.10;;
54849;SDS011;47660;51.334;12.396;2022-11-23T03:11:50;7.13;;;3.67;;
54849;SDS011;47660;51.334;12.396;2022-11-23T03:14:16;9.27;;;3.58;;
54849;SDS011;47660;51.334;12.396;2022-11-23T03:16:41;4.90;;;3.05;;
54849;SDS011;47660;51.334;12.396;2022-11-23T03:19:07;8.57;;;3.20;;
54849;SDS011;47660;51.334;12.396;2022-11-23T03:21:32;5.82;;;2.85;;
54849;SDS011;47660;51.334;12.396;2022-11-23T03:23:58;7.35;;;2.95;;
54849;SDS011;47660;51.334;12.396;2022-11-23T03:26:23;6.25;;;3.60;;
54849;SDS011;47660;51.334;12.396;2022-11-23T03:28:51;4.75;;;2.35;;
54849;SDS011;47660;51.334;12.396;2022-11-23T03:31:16;10.55;;;3.00;;
54849;SDS011;47660;51.334;12.396;2022-11-23T03:33:41;7.90;;;3.42;;
54849;SDS011;47660;51.334;12.396;2022-11-23T03:36:07;6.38;;;3.58;;
54849;SDS011;47660;51.334;12.396;2022-11-23T03:38:32;9.45;;;3.75;;
54849;SDS011;47660;51.334;12.396;2022-11-23T03:40:58;7.35;;;3.15;;
54849;SDS011;47660;51.334;12.396;2022-11-23T03:43:25;9.10;;;3.08;;
54849;SDS011;47660;51.334;12.396;2022-11-23T03:45:53;8.60;;;3.88;;
54849;SDS011;47660;51.334;12.396;2022-11-23T03:48:19;7.57;;;3.10;;
54849;SDS011;47660;51.334;12.396;2022-11-23T03:50:44;11.05;;;4.03;;
54849;SDS011;47660;51.334;12.396;2022-11-23T03:53:10;5.32;;;3.22;;
54849;SDS011;47660;51.334;12.396;2022-11-23T03:55:37;6.65;;;3.50;;
54849;SDS011;47660;51.334;12.396;2022-11-23T03:58:03;6.90;;;3.40;;
54849;SDS011;47660;51.334;12.396;2022-11-23T04:00:31;8.00;;;4.25;;
54849;SDS011;47660;51.334;12.396;2022-11-23T04:02:56;5.60;;;2.83;;
54849;SDS011;47660;51.334;12.396;2022-11-23T04:05:22;6.32;;;3.00;;
54849;SDS011;47660;51.334;12.396;2022-11-23T04:07:48;9.00;;;3.97;;
54849;SDS011;47660;51.334;12.396;2022-11-23T04:10:14;7.50;;;3.25;;
54849;SDS011;47660;51.334;12.396;2022-11-23T04:12:40;6.50;;;3.00;;
54849;SDS011;47660;51.334;12.396;2022-11-23T04:15:06;10.77;;;3.58;;
54849;SDS011;47660;51.334;12.396;2022-11-23T04:17:34;7.03;;;3.78;;
54849;SDS011;47660;51.334;12.396;2022-11-23T04:20:00;6.55;;;3.30;;
54849;SDS011;47660;51.334;12.396;2022-11-23T04:22:25;4.57;;;3.35;;
54849;SDS011;47660;51.334;12.396;2022-11-23T04:24:51;6.65;;;3.42;;
54849;SDS011;47660;51.334;12.396;2022-11-23T04:27:16;5.28;;;2.63;;
54849;SDS011;47660;51.334;12.396;2022-11-23T04:29:41;6.82;;;3.05;;
54849;SDS011;47660;51.334;12.396;2022-11-23T04:32:09;12.25;;;4.20;;
54849;SDS011;47660;51.334;12.396;2022-11-23T04:34:34;5.50;;;3.55;;
54849;SDS011;47660;51.334;12.396;2022-11-23T04:37:02;6.60;;;3.35;;
54849;SDS011;47660;51.334;12.396;2022-11-23T04:39:27;6.43;;;3.42;;
54849;SDS011;47660;51.334;12.396;2022-11-23T04:41:53;10.40;;;4.40;;
54849;SDS011;47660;51.334;12.396;2022-11-23T04:44:19;9.55;;;3.65;;
54849;SDS011;47660;51.334;12.396;2022-11-23T04:46:46;6.70;;;3.20;;
54849;SDS011;47660;51.334;12.396;2022-11-23T04:49:14;7.97;;;3.20;;
54849;SDS011;47660;51.334;12.396;2022-11-23T04:51:39;5.78;;;3.05;;
54849;SDS011;47660;51.334;12.396;2022-11-23T04:54:05;9.98;;;3.75;;
54849;SDS011;47660;51.334;12.396;2022-11-23T04:56:30;9.35;;;3.97;;
54849;SDS011;47660;51.334;12.396;2022-11-23T04:58:55;8.43;;;4.05;;
54849;SDS011;47660;51.334;12.396;2022-11-23T05:01:23;7.65;;;3.70;;
54849;SDS011;47660;51.334;12.396;2022-11-23T05:03:48;7.63;;;3.92;;
54849;SDS011;47660;51.334;12.396;2022-11-23T05:06:14;16.50;;;3.63;;
54849;SDS011;47660;51.334;12.396;2022-11-23T05:08:39;13.60;;;4.65;;
54849;SDS011;47660;51.334;12.396;2022-11-23T05:11:05;15.38;;;3.97;;
54849;SDS011;47660;51.334;12.396;2022-11-23T05:13:30;11.75;;;3.60;;
54849;SDS011;47660;51.334;12.396;2022-11-23T05:15:56;6.40;;;3.15;;
54849;SDS011;47660;51.334;12.396;2022-11-23T05:18:24;8.45;;;3.60;;
54849;SDS011;47660;51.334;12.396;2022-11-23T05:20:49;6.57;;;2.75;;
54849;SDS011;47660;51.334;12.396;2022-11-23T05:23:14;8.68;;;4.32;;
54849;SDS011;47660;51.334;12.396;2022-11-23T05:25:40;5.50;;;3.55;;
54849;SDS011;47660;51.334;12.396;2022-11-23T05:28:05;7.75;;;3.65;;
54849;SDS011;47660;51.334;12.396;2022-11-23T05:30:31;7.63;;;3.80;;
54849;SDS011;47660;51.334;12.396;2022-11-23T05:33:02;8.57;;;4.22;;
54849;SDS011;47660;51.334;12.396;2022-11-23T05:35:28;7.97;;;4.25;;
54849;SDS011;47660;51.334;12.396;2022-11-23T05:37:54;6.80;;;3.50;;
54849;SDS011;47660;51.334;12.396;2022-11-23T05:40:20;8.57;;;3.20;;
54849;SDS011;47660;51.334;12.396;2022-11-23T05:42:45;6.00;;;3.88;;
54849;SDS011;47660;51.334;12.396;2022-11-23T05:45:11;7.10;;;4.18;;
54849;SDS011;47660;51.334;12.396;2022-11-23T05:47:38;10.43;;;4.78;;
54849;SDS011;47660;51.334;12.396;2022-11-23T05:50:07;7.97;;;3.55;;
54849;SDS011;47660;51.334;12.396;2022-11-23T05:52:35;9.15;;;4.25;;
54849;SDS011;47660;51.334;12.396;2022-11-23T05:55:00;5.70;;;3.65;;
54849;SDS011;47660;51.334;12.396;2022-11-23T05:57:28;10.82;;;3.70;;
54849;SDS011;47660;51.334;12.396;2022-11-23T05:59:53;8.82;;;4.32;;
54849;SDS011;47660;51.334;12.396;2022-11-23T06:02:19;8.27;;;3.17;;
54849;SDS011;47660;51.334;12.396;2022-11-23T06:07:10;10.20;;;3.58;;
54849;SDS011;47660;51.334;12.396;2022-11-23T06:09:35;5.55;;;3.67;;
54849;SDS011;47660;51.334;12.396;2022-11-23T06:12:01;7.78;;;4.07;;
54849;SDS011;47660;51.334;12.396;2022-11-23T06:14:27;17.88;;;4.88;;
54849;SDS011;47660;51.334;12.396;2022-11-23T06:16:53;7.95;;;4.00;;
54849;SDS011;47660;51.334;12.396;2022-11-23T06:19:21;10.63;;;3.95;;
54849;SDS011;47660;51.334;12.396;2022-11-23T06:21:46;9.25;;;4.75;;
54849;SDS011;47660;51.334;12.396;2022-11-23T06:24:12;9.68;;;4.38;;
54849;SDS011;47660;51.334;12.396;2022-11-23T06:26:38;8.70;;;4.72;;
54849;SDS011;47660;51.334;12.396;2022-11-23T06:29:03;8.70;;;4.60;;
54849;SDS011;47660;51.334;12.396;2022-11-23T06:31:29;10.45;;;4.05;;
54849;SDS011;47660;51.334;12.396;2022-11-23T06:33:55;6.10;;;3.72;;
54849;SDS011;47660;51.334;12.396;2022-11-23T06:36:20;7.35;;;4.07;;
54849;SDS011;47660;51.334;12.396;2022-11-23T06:38:46;9.38;;;4.78;;
54849;SDS011;47660;51.334;12.396;2022-11-23T06:41:12;11.32;;;4.57;;
54849;SDS011;47660;51.334;12.396;2022-11-23T06:43:39;10.65;;;4.50;;
54849;SDS011;47660;51.334;12.396;2022-11-23T06:46:05;13.93;;;4.35;;
54849;SDS011;47660;51.334;12.396;2022-11-23T06:48:32;9.23;;;3.90;;
54849;SDS011;47660;51.334;12.396;2022-11-23T06:50:58;8.20;;;4.10;;
54849;SDS011;47660;51.334;12.396;2022-11-23T06:53:26;10.23;;;5.45;;
54849;SDS011;47660;51.334;12.396;2022-11-23T06:55:58;12.10;;;5.25;;
54849;SDS011;47660;51.334;12.396;2022-11-23T06:58:25;17.20;;;4.80;;
54849;SDS011;47660;51.334;12.396;2022-11-23T07:00:50;14.10;;;4.70;;
54849;SDS011;47660;51.334;12.396;2022-11-23T07:03:20;8.18;;;3.92;;
54849;SDS011;47660;51.334;12.396;2022-11-23T07:05:47;14.02;;;4.80;;
54849;SDS011;47660;51.334;12.396;2022-11-23T07:08:12;9.07;;;4.50;;
54849;SDS011;47660;51.334;12.396;2022-11-23T07:10:38;9.60;;;3.97;;
54849;SDS011;47660;51.334;12.396;2022-11-23T07:13:06;10.75;;;4.68;;
54849;SDS011;47660;51.334;12.396;2022-11-23T07:15:33;10.05;;;4.63;;
54849;SDS011;47660;51.334;12.396;2022-11-23T07:18:01;4.55;;;3.20;;
54849;SDS011;47660;51.334;12.396;2022-11-23T07:20:27;15.55;;;5.07;;
54849;SDS011;47660;51.334;12.396;2022-11-23T07:23:05;11.82;;;4.75;;
54849;SDS011;47660;51.334;12.396;2022-11-23T07:25:33;10.40;;;4.75;;
54849;SDS011;47660;51.334;12.396;2022-11-23T07:28:03;10.55;;;4.10;;
54849;SDS011;47660;51.334;12.396;2022-11-23T07:30:30;10.48;;;4.63;;
54849;SDS011;47660;51.334;12.396;2022-11-23T07:33:03;9.73;;;4.20;;
54849;SDS011;47660;51.334;12.396;2022-11-23T07:35:31;7.43;;;3.53;;
54849;SDS011;47660;51.334;12.396;2022-11-23T07:38:02;6.57;;;4.07;;
54849;SDS011;47660;51.334;12.396;2022-11-23T07:40:30;8.05;;;4.40;;
54849;SDS011;47660;51.334;12.396;2022-11-23T07:43:00;7.40;;;3.75;;
54849;SDS011;47660;51.334;12.396;2022-11-23T07:45:26;7.97;;;4.35;;
54849;SDS011;47660;51.334;12.396;2022-11-23T07:47:59;7.45;;;4.05;;
54849;SDS011;47660;51.334;12.396;2022-11-23T07:52:56;8.30;;;4.70;;
54849;SDS011;47660;51.334;12.396;2022-11-23T07:55:22;6.90;;;3.58;;
54849;SDS011;47660;51.334;12.396;2022-11-23T07:57:51;5.95;;;2.97;;
54849;SDS011;47660;51.334;12.396;2022-11-23T08:00:22;6.18;;;3.38;;
54849;SDS011;47660;51.334;12.396;2022-11-23T08:02:49;5.05;;;3.33;;
54849;SDS011;47660;51.334;12.396;2022-11-23T08:05:15;10.90;;;4.85;;
54849;SDS011;47660;51.334;12.396;2022-11-23T08:07:43;9.35;;;3.85;;
54849;SDS011;47660;51.334;12.396;2022-11-23T08:10:10;8.93;;;4.32;;
54849;SDS011;47660;51.334;12.396;2022-11-23T08:12:37;7.68;;;3.80;;
54849;SDS011;47660;51.334;12.396;2022-11-23T08:15:05;8.32;;;3.75;;
54849;SDS011;47660;51.334;12.396;2022-11-23T08:17:34;7.68;;;4.13;;
54849;SDS011;47660;51.334;12.396;2022-11-23T08:19:59;6.72;;;3.92;;
54849;SDS011;47660;51.334;12.396;2022-11-23T08:22:25;9.32;;;4.20;;
54849;SDS011;47660;51.334;12.396;2022-11-23T08:24:51;7.95;;;4.20;;
54849;SDS011;47660;51.334;12.396;2022-11-23T08:27:19;6.25;;;2.88;;
54849;SDS011;47660;51.334;12.396;2022-11-23T08:29:45;5.85;;;3.78;;
54849;SDS011;47660;51.334;12.396;2022-11-23T08:32:10;7.53;;;3.85;;
54849;SDS011;47660;51.334;12.396;2022-11-23T08:34:36;9.25;;;4.50;;
54849;SDS011;47660;51.334;12.396;2022-11-23T08:37:04;11.25;;;4.05;;
54849;SDS011;47660;51.334;12.396;2022-11-23T08:39:29;7.95;;;3.78;;
54849;SDS011;47660;51.334;12.396;2022-11-23T08:41:55;8.35;;;3.58;;
54849;SDS011;47660;51.334;12.396;2022-11-23T08:44:20;7.72;;;3.25;;
54849;SDS011;47660;51.334;12.396;2022-11-23T08:46:47;9.80;;;3.15;;
54849;SDS011;47660;51.334;12.396;2022-11-23T08:49:12;6.22;;;3.13;;
54849;SDS011;47660;51.334;12.396;2022-11-23T08:51:37;9.98;;;4.72;;
54849;SDS011;47660;51.334;12.396;2022-11-23T08:54:05;8.88;;;3.65;;
54849;SDS011;47660;51.334;12.396;2022-11-23T08:56:31;7.85;;;4.13;;
54849;SDS011;47660;51.334;12.396;2022-11-23T08:58:58;6.30;;;3.72;;
54849;SDS011;47660;51.334;12.396;2022-11-23T09:01:23;7.85;;;3.58;;
54849;SDS011;47660;51.334;12.396;2022-11-23T09:03:49;5.00;;;2.75;;
54849;SDS011;47660;51.334;12.396;2022-11-23T09:06:14;5.93;;;4.03;;
54849;SDS011;47660;51.334;12.396;2022-11-23T09:08:40;9.18;;;3.10;;
54849;SDS011;47660;51.334;12.396;2022-11-23T09:11:09;6.72;;;4.22;;
54849;SDS011;47660;51.334;12.396;2022-11-23T09:13:37;7.18;;;3.28;;
54849;SDS011;47660;51.334;12.396;2022-11-23T09:16:03;5.05;;;2.85;;
54849;SDS011;47660;51.334;12.396;2022-11-23T09:18:29;7.70;;;3.70;;
54849;SDS011;47660;51.334;12.396;2022-11-23T09:20:55;7.53;;;3.20;;
54849;SDS011;47660;51.334;12.396;2022-11-23T09:23:24;8.65;;;3.65;;
54849;SDS011;47660;51.334;12.396;2022-11-23T09:25:51;8.70;;;3.33;;
54849;SDS011;47660;51.334;12.396;2022-11-23T09:28:16;5.25;;;3.35;;
54849;SDS011;47660;51.334;12.396;2022-11-23T09:30:44;10.13;;;3.90;;
54849;SDS011;47660;51.334;12.396;2022-11-23T09:33:10;6.57;;;3.08;;
54849;SDS011;47660;51.334;12.396;2022-11-23T09:35:36;7.28;;;3.20;;
54849;SDS011;47660;51.334;12.396;2022-11-23T09:38:04;7.18;;;3.42;;
54849;SDS011;47660;51.334;12.396;2022-11-23T09:40:35;9.23;;;3.53;;
54849;SDS011;47660;51.334;12.396;2022-11-23T09:45:49;4.32;;;2.92;;
54849;SDS011;47660;51.334;12.396;2022-11-23T09:51:15;5.30;;;3.15;;
54849;SDS011;47660;51.334;12.396;2022-11-23T09:53:49;3.97;;;2.95;;
54849;SDS011;47660;51.334;12.396;2022-11-23T09:56:22;6.53;;;3.35;;
54849;SDS011;47660;51.334;12.396;2022-11-23T09:58:57;10.02;;;4.05;;
54849;SDS011;47660;51.334;12.396;2022-11-23T10:01:25;5.25;;;2.25;;
54849;SDS011;47660;51.334;12.396;2022-11-23T10:03:56;6.63;;;3.30;;
54849;SDS011;47660;51.334;12.396;2022-11-23T10:06:26;9.95;;;3.70;;
54849;SDS011;47660;51.334;12.396;2022-11-23T10:08:58;3.95;;;2.33;;
54849;SDS011;47660;51.334;12.396;2022-11-23T10:12:21;4.13;;;2.97;;
54849;SDS011;47660;51.334;12.396;2022-11-23T10:22:59;5.32;;;2.92;;
54849;SDS011;47660;51.334;12.396;2022-11-23T10:25:33;8.85;;;3.88;;
54849;SDS011;47660;51.334;12.396;2022-11-23T10:28:09;6.85;;;3.38;;
54849;SDS011;47660;51.334;12.396;2022-11-23T10:30:39;6.55;;;2.88;;
54849;SDS011;47660;51.334;12.396;2022-11-23T10:35:31;3.38;;;2.33;;
54849;SDS011;47660;51.334;12.396;2022-11-23T10:38:08;5.13;;;2.00;;
54849;SDS011;47660;51.334;12.396;2022-11-23T10:40:38;2.40;;;1.55;;
54849;SDS011;47660;51.334;12.396;2022-11-23T10:43:17;2.58;;;1.52;;
54849;SDS011;47660;51.334;12.396;2022-11-23T10:45:48;4.35;;;2.20;;
54849;SDS011;47660;51.334;12.396;2022-11-23T10:48:32;4.78;;;2.20;;
54849;SDS011;47660;51.334;12.396;2022-11-23T10:53:54;13.98;;;2.15;;
54849;SDS011;47660;51.334;12.396;2022-11-23T10:56:24;3.80;;;1.75;;
54849;SDS011;47660;51.334;12.396;2022-11-23T10:58:50;2.90;;;1.90;;
54849;SDS011;47660;51.334;12.396;2022-11-23T11:01:19;1.98;;;0.90;;
54849;SDS011;47660;51.334;12.396;2022-11-23T11:03:48;3.00;;;1.50;;
54849;SDS011;47660;51.334;12.396;2022-11-23T11:06:21;8.77;;;1.80;;
54849;SDS011;47660;51.334;12.396;2022-11-23T11:08:59;3.72;;;1.30;;
54849;SDS011;47660;51.334;12.396;2022-11-23T11:11:31;5.80;;;1.67;;
54849;SDS011;47660;51.334;12.396;2022-11-23T11:16:34;3.40;;;1.40;;
54849;SDS011;47660;51.334;12.396;2022-11-23T11:21:49;3.67;;;1.85;;
54849;SDS011;47660;51.334;12.396;2022-11-23T11:24:16;1.85;;;1.20;;
54849;SDS011;47660;51.334;12.396;2022-11-23T11:26:57;1.63;;;1.13;;
54849;SDS011;47660;51.334;12.396;2022-11-23T11:29:28;4.18;;;1.85;;
54849;SDS011;47660;51.334;12.396;2022-11-23T11:31:55;2.90;;;1.48;;
54849;SDS011;47660;51.334;12.396;2022-11-23T11:39:30;6.10;;;1.92;;
54849;SDS011;47660;51.334;12.396;2022-11-23T11:42:15;3.20;;;1.42;;
54849;SDS011;47660;51.334;12.396;2022-11-23T11:44:47;2.20;;;1.45;;
54849;SDS011;47660;51.334;12.396;2022-11-23T11:47:31;2.10;;;1.60;;
54849;SDS011;47660;51.334;12.396;2022-11-23T11:50:19;3.40;;;1.35;;
54849;SDS011;47660;51.334;12.396;2022-11-23T11:52:46;1.73;;;1.30;;
54849;SDS011;47660;51.334;12.396;2022-11-23T11:55:45;2.50;;;1.35;;
54849;SDS011;47660;51.334;12.396;2022-11-23T11:58:22;6.53;;;1.90;;
54849;SDS011;47660;51.334;12.396;2022-11-23T12:00:55;4.32;;;1.73;;
54849;SDS011;47660;51.334;12.396;2022-11-23T12:03:49;3.35;;;1.75;;
54849;SDS011;47660;51.334;12.396;2022-11-23T12:06:22;1.85;;;1.58;;
54849;SDS011;47660;51.334;12.396;2022-11-23T12:09:00;7.30;;;2.20;;
54849;SDS011;47660;51.334;12.396;2022-11-23T12:11:31;2.40;;;1.70;;
54849;SDS011;47660;51.334;12.396;2022-11-23T12:14:03;13.35;;;2.28;;
54849;SDS011;47660;51.334;12.396;2022-11-23T12:19:26;2.95;;;1.73;;
54849;SDS011;47660;51.334;12.396;2022-11-23T12:27:08;3.70;;;1.63;;
54849;SDS011;47660;51.334;12.396;2022-11-23T12:32:41;9.15;;;3.65;;
54849;SDS011;47660;51.334;12.396;2022-11-23T12:35:25;3.50;;;1.33;;
54849;SDS011;47660;51.334;12.396;2022-11-23T12:38:04;3.60;;;1.65;;
54849;SDS011;47660;51.334;12.396;2022-11-23T12:46:12;3.13;;;1.70;;
54849;SDS011;47660;51.334;12.396;2022-11-23T13:00:05;3.30;;;1.60;;
54849;SDS011;47660;51.334;12.396;2022-11-23T13:22:24;2.30;;;1.60;;
54849;SDS011;47660;51.334;12.396;2022-11-23T13:25:03;6.75;;;1.70;;
54849;SDS011;47660;51.334;12.396;2022-11-23T13:40:39;2.78;;;1.77;;
54849;SDS011;47660;51.334;12.396;2022-11-23T13:43:12;3.88;;;2.05;;
54849;SDS011;47660;51.334;12.396;2022-11-23T13:48:43;5.93;;;2.53;;
54849;SDS011;47660;51.334;12.396;2022-11-23T13:51:23;4.75;;;1.83;;
54849;SDS011;47660;51.334;12.396;2022-11-23T13:53:54;8.75;;;2.08;;
54849;SDS011;47660;51.334;12.396;2022-11-23T13:56:34;6.65;;;2.03;;
54849;SDS011;47660;51.334;12.396;2022-11-23T14:04:38;3.55;;;1.75;;
54849;SDS011;47660;51.334;12.396;2022-11-23T14:07:19;3.67;;;2.17;;
54849;SDS011;47660;51.334;12.396;2022-11-23T14:15:31;3.92;;;1.60;;
54849;SDS011;47660;51.334;12.396;2022-11-23T14:21:19;3.90;;;2.17;;
54849;SDS011;47660;51.334;12.396;2022-11-23T14:30:47;4.28;;;2.08;;
54849;SDS011;47660;51.334;12.396;2022-11-23T14:40:53;4.25;;;1.85;;
54849;SDS011;47660;51.334;12.396;2022-11-23T14:43:31;4.88;;;1.70;;
54849;SDS011;47660;51.334;12.396;2022-11-23T14:46:00;6.13;;;2.55;;
54849;SDS011;47660;51.334;12.396;2022-11-23T14:53:32;5.72;;;2.20;;
54849;SDS011;47660;51.334;12.396;2022-11-23T14:56:03;6.20;;;2.47;;
54849;SDS011;47660;51.334;12.396;2022-11-23T14:58:29;4.85;;;1.70;;
54849;SDS011;47660;51.334;12.396;2022-11-23T15:01:02;3.08;;;1.58;;
54849;SDS011;47660;51.334;12.396;2022-11-23T15:03:29;3.17;;;1.92;;
54849;SDS011;47660;51.334;12.396;2022-11-23T15:06:06;3.70;;;1.80;;
54849;SDS011;47660;51.334;12.396;2022-11-23T15:08:42;9.68;;;4.82;;
54849;SDS011;47660;51.334;12.396;2022-11-23T15:11:14;1.95;;;1.48;;
54849;SDS011;47660;51.334;12.396;2022-11-23T15:16:16;6.85;;;2.00;;
54849;SDS011;47660;51.334;12.396;2022-11-23T15:18:47;4.53;;;1.70;;
54849;SDS011;47660;51.334;12.396;2022-11-23T15:21:20;5.20;;;1.92;;
54849;SDS011;47660;51.334;12.396;2022-11-23T15:23:48;6.22;;;2.58;;
54849;SDS011;47660;51.334;12.396;2022-11-23T15:28:54;4.68;;;2.10;;
54849;SDS011;47660;51.334;12.396;2022-11-23T15:33:46;2.83;;;1.83;;
54849;SDS011;47660;51.334;12.396;2022-11-23T15:36:18;2.17;;;1.30;;
54849;SDS011;47660;51.334;12.396;2022-11-23T15:38:50;5.38;;;2.00;;
54849;SDS011;47660;51.334;12.396;2022-11-23T15:41:17;8.00;;;2.45;;
54849;SDS011;47660;51.334;12.396;2022-11-23T15:43:52;4.53;;;2.00;;
54849;SDS011;47660;51.334;12.396;2022-11-23T15:46:25;3.55;;;1.70;;
54849;SDS011;47660;51.334;12.396;2022-11-23T15:48:59;5.10;;;2.20;;
54849;SDS011;47660;51.334;12.396;2022-11-23T15:51:35;7.05;;;3.58;;
54849;SDS011;47660;51.334;12.396;2022-11-23T15:54:04;4.68;;;2.15;;
54849;SDS011;47660;51.334;12.396;2022-11-23T15:56:33;5.55;;;1.77;;
54849;SDS011;47660;51.334;12.396;2022-11-23T15:59:01;3.05;;;1.77;;
54849;SDS011;47660;51.334;12.396;2022-11-23T16:01:28;4.82;;;1.85;;
54849;SDS011;47660;51.334;12.396;2022-11-23T16:03:55;4.75;;;2.25;;
54849;SDS011;47660;51.334;12.396;2022-11-23T16:06:33;4.10;;;2.20;;
54849;SDS011;47660;51.334;12.396;2022-11-23T16:08:59;3.17;;;2.10;;
54849;SDS011;47660;51.334;12.396;2022-11-23T16:16:43;3.45;;;2.15;;
54849;SDS011;47660;51.334;12.396;2022-11-23T16:19:19;6.93;;;2.33;;
54849;SDS011;47660;51.334;12.396;2022-11-23T16:21:48;6.75;;;2.65;;
54849;SDS011;47660;51.334;12.396;2022-11-23T16:24:18;6.55;;;1.95;;
54849;SDS011;47660;51.334;12.396;2022-11-23T16:26:47;3.47;;;2.17;;
54849;SDS011;47660;51.334;12.396;2022-11-23T16:29:20;4.15;;;2.25;;
54849;SDS011;47660;51.334;12.396;2022-11-23T16:31:59;5.22;;;2.45;;
54849;SDS011;47660;51.334;12.396;2022-11-23T16:34:27;3.72;;;2.00;;
54849;SDS011;47660;51.334;12.396;2022-11-23T16:36:55;3.65;;;1.98;;
54849;SDS011;47660;51.334;12.396;2022-11-23T16:39:27;6.50;;;2.22;;
54849;SDS011;47660;51.334;12.396;2022-11-23T16:41:54;4.88;;;2.20;;
54849;SDS011;47660;51.334;12.396;2022-11-23T16:44:20;9.35;;;2.65;;
54849;SDS011;47660;51.334;12.396;2022-11-23T16:46:46;2.95;;;1.90;;
54849;SDS011;47660;51.334;12.396;2022-11-23T16:49:14;15.77;;;3.00;;
54849;SDS011;47660;51.334;12.396;2022-11-23T16:51:45;4.35;;;2.15;;
54849;SDS011;47660;51.334;12.396;2022-11-23T16:54:15;5.00;;;2.35;;
54849;SDS011;47660;51.334;12.396;2022-11-23T16:56:41;6.00;;;2.17;;
54849;SDS011;47660;51.334;12.396;2022-11-23T16:59:13;4.72;;;2.35;;
54849;SDS011;47660;51.334;12.396;2022-11-23T17:01:42;6.13;;;2.75;;
54849;SDS011;47660;51.334;12.396;2022-11-23T17:04:13;4.20;;;2.30;;
54849;SDS011;47660;51.334;12.396;2022-11-23T17:06:40;4.55;;;2.20;;
54849;SDS011;47660;51.334;12.396;2022-11-23T17:09:06;3.95;;;2.10;;
54849;SDS011;47660;51.334;12.396;2022-11-23T17:11:36;2.33;;;1.90;;
54849;SDS011;47660;51.334;12.396;2022-11-23T17:14:05;4.25;;;2.35;;
54849;SDS011;47660;51.334;12.396;2022-11-23T17:16:31;6.30;;;2.72;;
54849;SDS011;47660;51.334;12.396;2022-11-23T17:18:58;6.10;;;3.03;;
54849;SDS011;47660;51.334;12.396;2022-11-23T17:21:23;3.42;;;1.88;;
54849;SDS011;47660;51.334;12.396;2022-11-23T17:23:51;4.55;;;2.72;;
54849;SDS011;47660;51.334;12.396;2022-11-23T17:26:36;4.18;;;2.85;;
54849;SDS011;47660;51.334;12.396;2022-11-23T17:29:05;5.82;;;2.85;;